Time;durP1;ratioP1;P1;durP2;ratioP2;P2;SDS_P1;SDS_P2;PMS_P1;PMS_P2;Temp;Humidity;BMP_temperature;BMP_pressure;BME280_temperature;BME280_humidity;BME280_pressure;Samples;Min_cycle;Max_cycle;Signal;HPM_P1;HPM_P2
2023/08/09 00:03:42;;;;;;;3.20;3.00;;;19.60;92.60;;;;;;10360341;28;20230;-85
2023/08/09 00:08:46;;;;;;;4.20;2.63;;;19.60;92.70;;;;;;10383160;28;20207;-83
2023/08/09 00:13:48;;;;;;;3.13;2.93;;;19.60;92.60;;;;;;10377258;28;20224;-83
2023/08/09 00:18:50;;;;;;;2.30;2.20;;;19.60;92.20;;;;;;10376827;28;20203;-83
2023/08/09 00:23:53;;;;;;;2.60;2.37;;;19.60;92.40;;;;;;10379807;28;20223;-84
2023/08/09 00:28:55;;;;;;;2.70;2.40;;;19.60;92.60;;;;;;10367921;28;20200;-83
2023/08/09 00:33:57;;;;;;;7.30;2.60;;;19.60;92.10;;;;;;10365307;28;20226;-84
2023/08/09 00:39:01;;;;;;;3.20;3.00;;;19.60;92.70;;;;;;10375398;28;20195;-86
2023/08/09 00:44:03;;;;;;;2.73;2.53;;;19.60;92.50;;;;;;10376827;28;20662;-85
2023/08/09 00:49:05;;;;;;;2.53;2.43;;;19.50;92.90;;;;;;10371110;28;20200;-83
2023/08/09 00:54:09;;;;;;;2.90;2.70;;;19.50;93.50;;;;;;10347501;28;20230;-83
2023/08/09 00:59:12;;;;;;;2.70;2.60;;;19.30;93.90;;;;;;10368461;28;20211;-84
2023/08/09 01:04:14;;;;;;;2.90;2.70;;;19.30;94.80;;;;;;10359380;28;20306;-83
2023/08/09 01:09:27;;;;;;;3.13;2.93;;;19.20;94.70;;;;;;10376678;28;20228;-84
2023/08/09 01:14:32;;;;;;;2.90;2.80;;;19.20;95.50;;;;;;10367535;28;20243;-84
2023/08/09 01:19:41;;;;;;;3.53;3.17;;;19.20;95.90;;;;;;10372584;28;20218;-85
2023/08/09 01:24:45;;;;;;;3.33;3.07;;;19.10;96.20;;;;;;10367155;28;20281;-85
2023/08/09 01:29:47;;;;;;;3.43;3.13;;;19.10;96.20;;;;;;10361870;28;20607;-84
2023/08/09 01:34:49;;;;;;;3.07;2.87;;;19.10;96.10;;;;;;10369415;28;20219;-85
2023/08/09 01:39:55;;;;;;;3.63;3.40;;;19.10;96.50;;;;;;10377347;28;20624;-84
2023/08/09 01:44:58;;;;;;;3.83;3.50;;;18.90;96.90;;;;;;10366951;28;20224;-85
2023/08/09 01:50:00;;;;;;;3.53;3.27;;;18.80;97.60;;;;;;10364802;28;20279;-84
2023/08/09 01:55:04;;;;;;;3.73;3.43;;;18.60;97.20;;;;;;10367293;28;20224;-85
2023/08/09 02:00:09;;;;;;;4.00;3.70;;;18.50;97.90;;;;;;10378615;28;20216;-84
2023/08/09 02:05:18;;;;;;;2.83;2.70;;;18.40;98.60;;;;;;10377161;28;20314;-85
2023/08/09 02:10:21;;;;;;;3.50;3.30;;;18.30;99.00;;;;;;10364666;28;20223;-82
2023/08/09 02:15:24;;;;;;;3.63;3.40;;;18.20;99.10;;;;;;10370198;28;20274;-84
2023/08/09 02:20:27;;;;;;;4.60;3.23;;;18.10;99.50;;;;;;10356012;28;20212;-84
2023/08/09 02:25:31;;;;;;;4.07;3.33;;;18.20;99.70;;;;;;10346973;28;20219;-85
2023/08/09 02:30:33;;;;;;;3.93;3.60;;;18.30;99.70;;;;;;10376700;28;20228;-84
2023/08/09 02:35:52;;;;;;;4.00;3.70;;;18.40;99.90;;;;;;10365711;28;20226;-86
2023/08/09 02:40:56;;;;;;;2.90;2.80;;;18.50;99.90;;;;;;10372368;28;20203;-85
2023/08/09 02:45:58;;;;;;;3.73;3.50;;;18.50;99.90;;;;;;10365526;28;20223;-84
2023/08/09 02:51:01;;;;;;;2.70;2.60;;;18.60;99.10;;;;;;10362708;28;20205;-84
2023/08/09 02:56:05;;;;;;;3.13;2.93;;;18.60;98.20;;;;;;10368517;28;20227;-84
2023/08/09 03:01:07;;;;;;;3.87;3.53;;;18.60;98.90;;;;;;10341442;28;20298;-83
2023/08/09 03:06:09;;;;;;;3.30;3.00;;;18.70;98.20;;;;;;10338602;28;20235;-84
2023/08/09 03:11:12;;;;;;;3.37;3.17;;;18.70;98.40;;;;;;10352310;28;20675;-84
2023/08/09 03:16:15;;;;;;;3.70;3.30;;;18.80;98.70;;;;;;10366159;28;20224;-84
2023/08/09 03:21:17;;;;;;;3.43;3.00;;;18.80;98.30;;;;;;10346947;28;20799;-84
2023/08/09 03:26:21;;;;;;;3.30;3.00;;;18.80;98.20;;;;;;10344373;28;20232;-84
2023/08/09 03:31:23;;;;;;;3.40;3.10;;;18.80;97.70;;;;;;10348728;28;20208;-84
2023/08/09 03:36:27;;;;;;;3.10;2.90;;;18.70;97.50;;;;;;10330741;28;20256;-85
2023/08/09 03:41:31;;;;;;;3.67;3.47;;;18.80;97.60;;;;;;10334908;28;20232;-85
2023/08/09 03:46:34;;;;;;;2.43;2.33;;;18.80;97.00;;;;;;10348524;28;20699;-85
2023/08/09 03:51:37;;;;;;;2.70;2.50;;;18.80;96.10;;;;;;10333701;28;20214;-84
2023/08/09 03:56:41;;;;;;;3.03;2.83;;;18.80;96.20;;;;;;10375965;28;20580;-84
2023/08/09 04:01:44;;;;;;;3.00;2.83;;;18.90;96.10;;;;;;10393370;28;20231;-85
2023/08/09 04:06:47;;;;;;;3.13;2.93;;;18.90;96.30;;;;;;10395386;28;20314;-86
2023/08/09 04:11:50;;;;;;;4.37;3.40;;;18.90;96.20;;;;;;10371896;28;20647;-85
2023/08/09 04:16:52;;;;;;;3.17;2.97;;;18.80;96.30;;;;;;10358732;28;20211;-83
2023/08/09 04:21:55;;;;;;;4.00;3.20;;;18.80;96.70;;;;;;10351856;28;20208;-85
2023/08/09 04:26:59;;;;;;;3.30;3.00;;;18.80;96.50;;;;;;10366054;28;20318;-84
2023/08/09 04:32:01;;;;;;;2.93;2.73;;;18.80;95.90;;;;;;10392293;28;20255;-84
2023/08/09 04:37:03;;;;;;;2.73;2.53;;;18.90;95.30;;;;;;10403822;28;20242;-85
2023/08/09 04:42:07;;;;;;;2.40;2.30;;;18.90;94.60;;;;;;10404064;28;20195;-84
2023/08/09 04:47:09;;;;;;;2.10;2.00;;;19.00;94.70;;;;;;10394617;28;20596;-85
2023/08/09 04:52:11;;;;;;;2.63;2.43;;;19.00;94.70;;;;;;10366645;28;20208;-85
2023/08/09 04:57:15;;;;;;;2.50;2.40;;;19.00;94.40;;;;;;10344879;28;20275;-84
2023/08/09 05:02:17;;;;;;;2.87;2.70;;;19.10;94.60;;;;;;10377838;28;20269;-84
2023/08/09 05:07:19;;;;;;;3.90;2.00;;;19.10;94.10;;;;;;10379814;28;20216;-84
2023/08/09 05:12:23;;;;;;;2.80;2.37;;;19.10;94.50;;;;;;10369414;28;20354;-84
2023/08/09 05:17:25;;;;;;;3.20;2.70;;;19.10;94.30;;;;;;10384505;28;20207;-84
2023/08/09 05:22:27;;;;;;;2.50;2.40;;;19.10;94.90;;;;;;10378760;28;20223;-84
2023/08/09 05:27:31;;;;;;;2.47;2.37;;;19.20;95.20;;;;;;10384654;28;20668;-85
2023/08/09 05:32:33;;;;;;;4.40;2.33;;;19.20;95.20;;;;;;10385112;28;20340;-84
2023/08/09 05:37:35;;;;;;;2.20;2.10;;;19.20;94.90;;;;;;10368851;28;20203;-84
2023/08/09 05:42:39;;;;;;;2.00;1.90;;;19.30;94.90;;;;;;10382893;28;20250;-86
2023/08/09 05:47:41;;;;;;;2.70;2.50;;;19.30;94.80;;;;;;10383359;28;20242;-85
2023/08/09 05:52:43;;;;;;;2.87;2.67;;;19.30;95.20;;;;;;10388911;28;20219;-84
2023/08/09 05:57:47;;;;;;;4.10;2.63;;;19.40;95.20;;;;;;10390729;28;20191;-85
2023/08/09 06:02:49;;;;;;;2.60;2.40;;;19.40;94.90;;;;;;10395042;28;20226;-84
2023/08/09 06:07:51;;;;;;;7.47;2.27;;;19.50;95.10;;;;;;10395366;28;20222;-86
2023/08/09 06:12:54;;;;;;;2.60;2.40;;;19.50;95.10;;;;;;10396469;28;20219;-84
2023/08/09 06:17:56;;;;;;;2.77;2.37;;;19.60;94.80;;;;;;10398576;28;20195;-85
2023/08/09 06:22:58;;;;;;;2.50;2.30;;;19.60;95.10;;;;;;10403341;28;20230;-84
2023/08/09 06:28:02;;;;;;;2.47;2.27;;;19.60;95.00;;;;;;10402472;28;20571;-83
2023/08/09 06:33:05;;;;;;;2.60;2.40;;;19.80;95.10;;;;;;10393451;28;20224;-84
2023/08/09 06:38:07;;;;;;;3.70;2.33;;;19.80;94.90;;;;;;10394122;28;20191;-85
2023/08/09 06:43:10;;;;;;;12.80;8.47;;;19.90;95.10;;;;;;10372653;28;20226;-84
2023/08/09 06:48:14;;;;;;;6.67;5.20;;;20.10;94.60;;;;;;10355976;28;20299;-82
2023/08/09 06:53:16;;;;;;;17.87;3.10;;;20.30;94.30;;;;;;10343980;28;20247;-84
2023/08/09 06:58:19;;;;;;;2.40;2.17;;;20.50;93.80;;;;;;10335484;28;20211;-85
2023/08/09 07:03:21;;;;;;;2.60;2.40;;;20.60;94.00;;;;;;10345300;28;20227;-85
2023/08/09 07:08:23;;;;;;;2.87;2.63;;;20.70;93.90;;;;;;10343951;28;20227;-84
2023/08/09 07:13:27;;;;;;;2.33;2.13;;;20.90;93.30;;;;;;10342899;28;20224;-86
2023/08/09 07:18:29;;;;;;;2.17;2.07;;;21.00;93.60;;;;;;10328514;28;20246;-84
2023/08/09 07:23:32;;;;;;;3.03;2.83;;;20.90;93.30;;;;;;10347276;28;20220;-84
2023/08/09 07:28:35;;;;;;;2.70;2.50;;;20.90;93.20;;;;;;10374066;28;20226;-83
2023/08/09 07:33:37;;;;;;;2.57;2.40;;;20.90;93.60;;;;;;10356485;28;20224;-83
2023/08/09 07:38:39;;;;;;;2.20;2.10;;;20.90;93.60;;;;;;10352469;28;20215;-83
2023/08/09 07:43:43;;;;;;;2.70;2.20;;;21.00;93.90;;;;;;10351108;28;20219;-84
2023/08/09 07:48:45;;;;;;;2.83;2.63;;;21.00;93.80;;;;;;10352576;28;20338;-83
2023/08/09 07:53:47;;;;;;;3.27;2.60;;;21.10;94.30;;;;;;10355601;28;20212;-85
2023/08/09 07:58:50;;;;;;;2.53;2.30;;;21.20;94.10;;;;;;10373017;28;20671;-83
2023/08/09 08:03:52;;;;;;;2.80;2.40;;;21.30;94.50;;;;;;10402368;28;20207;-84
2023/08/09 08:08:56;;;;;;;2.20;2.10;;;21.40;94.00;;;;;;10400838;28;20231;-83
2023/08/09 08:13:59;;;;;;;2.60;2.40;;;21.50;93.40;;;;;;10396506;28;20555;-83
2023/08/09 08:19:02;;;;;;;1.80;1.70;;;21.40;93.80;;;;;;10401222;28;20609;-85
2023/08/09 08:24:07;;;;;;;3.40;2.57;;;21.40;93.70;;;;;;10401335;28;20223;-85
2023/08/09 08:29:11;;;;;;;2.50;1.80;;;21.40;93.00;;;;;;10393333;28;20288;-84
2023/08/09 08:34:13;;;;;;;2.27;2.00;;;21.40;94.00;;;;;;10363034;28;20216;-83
2023/08/09 08:39:15;;;;;;;2.07;1.97;;;21.40;94.10;;;;;;10371993;28;20192;-84
2023/08/09 08:44:19;;;;;;;2.23;2.13;;;21.30;94.00;;;;;;10355726;28;20284;-84
2023/08/09 08:49:25;;;;;;;3.87;2.50;;;21.30;94.50;;;;;;10355297;28;20223;-84
2023/08/09 08:54:27;;;;;;;3.87;2.20;;;21.20;93.60;;;;;;10382690;28;20306;-84
2023/08/09 08:59:31;;;;;;;2.20;2.00;;;21.20;93.90;;;;;;10385829;28;20606;-84
2023/08/09 09:04:35;;;;;;;3.63;2.50;;;21.20;94.40;;;;;;10379078;28;20286;-84
2023/08/09 09:09:44;;;;;;;5.20;2.90;;;21.20;94.80;;;;;;10388940;28;20219;-83
2023/08/09 09:14:51;;;;;;;5.00;4.03;;;21.30;94.10;;;;;;10386803;28;20274;-83
2023/08/09 09:19:54;;;;;;;3.10;2.90;;;21.40;93.90;;;;;;10384527;28;20548;-85
2023/08/09 09:24:59;;;;;;;6.30;2.27;;;21.50;94.20;;;;;;10337842;28;20746;-83
2023/08/09 09:30:05;;;;;;;2.67;1.97;;;21.50;94.40;;;;;;10384166;28;20278;-85
2023/08/09 09:35:08;;;;;;;3.10;2.37;;;21.60;93.60;;;;;;10388371;28;20228;-85
2023/08/09 09:40:11;;;;;;;2.60;2.30;;;21.60;93.80;;;;;;10354004;28;20212;-84
2023/08/09 09:45:18;;;;;;;3.00;2.67;;;21.50;93.60;;;;;;10359833;28;20590;-83
2023/08/09 09:50:22;;;;;;;2.73;1.97;;;21.60;93.90;;;;;;10388212;28;20226;-83
2023/08/09 09:55:28;;;;;;;2.20;2.10;;;21.50;94.10;;;;;;10394061;28;20223;-84
2023/08/09 10:00:32;;;;;;;3.03;2.67;;;21.50;94.00;;;;;;10371997;28;20654;-84
2023/08/09 10:05:36;;;;;;;7.03;2.87;;;21.60;93.80;;;;;;10368287;28;20235;-84
2023/08/09 10:10:41;;;;;;;2.90;2.40;;;21.70;94.00;;;;;;10410443;28;20249;-84
2023/08/09 10:15:47;;;;;;;5.67;2.70;;;21.80;94.10;;;;;;10377884;28;20219;-85
2023/08/09 10:20:55;;;;;;;3.93;2.87;;;21.90;93.60;;;;;;10385683;28;20269;-84
2023/08/09 10:26:01;;;;;;;4.20;2.50;;;22.00;93.30;;;;;;10380830;28;20220;-83
2023/08/09 10:31:13;;;;;;;3.13;2.20;;;21.90;93.40;;;;;;10362784;28;20196;-84
2023/08/09 10:36:32;;;;;;;2.13;2.03;;;21.80;93.40;;;;;;10481755;23;20335;-78
2023/08/09 10:41:34;;;;;;;2.17;2.07;;;21.80;93.90;;;;;;10500838;28;20185;-78
2023/08/09 10:46:37;;;;;;;4.57;2.13;;;21.80;94.00;;;;;;10478676;28;20225;-78
2023/08/09 10:51:47;;;;;;;2.83;2.63;;;21.80;94.00;;;;;;10486649;28;20208;-78
2023/08/09 10:56:49;;;;;;;3.33;2.53;;;21.90;94.10;;;;;;10463216;28;20213;-78
2023/08/09 11:01:54;;;;;;;5.07;2.60;;;22.20;94.40;;;;;;10485169;28;20197;-78
2023/08/09 11:06:56;;;;;;;2.23;2.03;;;22.50;94.10;;;;;;10506620;28;20278;-77
2023/08/09 11:11:58;;;;;;;3.40;2.20;;;22.70;93.40;;;;;;10447268;28;20623;-78
2023/08/09 11:17:02;;;;;;;4.07;2.23;;;22.90;92.80;;;;;;10470035;28;20222;-78
2023/08/09 11:22:04;;;;;;;3.00;2.10;;;22.80;92.70;;;;;;10470319;28;20225;-77
2023/08/09 11:27:07;;;;;;;4.10;2.40;;;22.70;93.00;;;;;;10425490;28;20261;-78
2023/08/09 11:32:11;;;;;;;5.20;2.60;;;22.70;92.60;;;;;;10462505;28;20211;-77
2023/08/09 11:37:13;;;;;;;3.00;2.57;;;22.90;93.80;;;;;;10479409;28;20262;-78
2023/08/09 11:42:15;;;;;;;2.90;2.57;;;23.20;93.60;;;;;;10474758;28;20201;-78
2023/08/09 11:47:18;;;;;;;2.80;2.60;;;23.50;93.50;;;;;;10463209;28;20713;-77
2023/08/09 11:52:22;;;;;;;2.00;1.90;;;23.50;92.90;;;;;;10494271;28;20209;-78
2023/08/09 11:57:24;;;;;;;4.60;3.10;;;23.40;92.90;;;;;;10488205;28;20214;-78
2023/08/09 12:02:29;;;;;;;2.87;2.50;;;23.50;93.40;;;;;;10481271;28;20562;-78
2023/08/09 12:07:31;;;;;;;3.67;2.60;;;23.50;93.20;;;;;;10491611;28;20224;-77
2023/08/09 12:12:38;;;;;;;5.67;2.30;;;23.50;92.80;;;;;;10497129;28;20201;-79
2023/08/09 12:17:41;;;;;;;4.60;2.20;;;23.60;92.60;;;;;;10487359;28;20213;-77
2023/08/09 12:22:43;;;;;;;2.90;2.70;;;23.60;93.00;;;;;;10477037;28;20221;-78
2023/08/09 12:27:46;;;;;;;3.20;3.00;;;23.70;92.00;;;;;;10466596;28;20348;-78
2023/08/09 12:32:49;;;;;;;2.37;2.23;;;23.70;92.50;;;;;;10462268;28;20197;-78
2023/08/09 12:37:51;;;;;;;5.87;2.70;;;23.70;92.50;;;;;;10477096;28;20255;-78
2023/08/09 12:42:53;;;;;;;2.70;1.90;;;23.70;92.40;;;;;;10493434;28;20216;-78
2023/08/09 12:47:56;;;;;;;2.50;2.40;;;23.70;92.40;;;;;;10468539;28;20263;-78
2023/08/09 12:52:58;;;;;;;2.70;2.40;;;23.70;92.50;;;;;;10471532;28;20198;-77
2023/08/09 12:58:01;;;;;;;2.77;2.50;;;23.80;91.70;;;;;;10504687;28;20232;-78
2023/08/09 13:03:06;;;;;;;5.10;3.13;;;23.80;91.80;;;;;;10479204;28;20208;-79
2023/08/09 13:08:08;;;;;;;8.13;2.90;;;23.80;91.50;;;;;;10498162;28;20229;-78
2023/08/09 13:13:10;;;;;;;9.10;2.87;;;23.70;91.40;;;;;;10489109;28;20696;-78
2023/08/09 13:18:13;;;;;;;9.83;3.23;;;23.70;91.90;;;;;;10502026;28;20198;-78
2023/08/09 13:23:15;;;;;;;2.20;2.00;;;23.80;91.90;;;;;;10479263;28;20229;-79
2023/08/09 13:28:18;;;;;;;5.00;2.33;;;23.80;90.90;;;;;;10489123;28;20669;-79
2023/08/09 13:33:22;;;;;;;2.80;2.60;;;23.80;91.30;;;;;;10469890;28;20221;-79
2023/08/09 13:38:27;;;;;;;13.33;8.77;;;23.70;91.20;;;;;;10496524;28;20619;-78
2023/08/09 13:43:30;;;;;;;3.30;2.00;;;23.60;91.60;;;;;;10491945;28;20252;-78
2023/08/09 13:48:34;;;;;;;2.50;2.30;;;23.70;91.40;;;;;;10451396;28;20214;-79
2023/08/09 13:53:36;;;;;;;4.13;3.00;;;23.70;91.60;;;;;;10489403;28;20593;-79
2023/08/09 13:58:38;;;;;;;2.63;2.43;;;23.70;92.10;;;;;;10454818;28;20202;-78
2023/08/09 14:03:41;;;;;;;4.23;2.83;;;23.80;91.70;;;;;;10468458;28;20230;-78
2023/08/09 14:08:44;;;;;;;2.50;2.30;;;23.90;91.70;;;;;;10495351;28;20221;-79
2023/08/09 14:13:46;;;;;;;2.80;2.53;;;24.10;91.50;;;;;;10502239;28;20223;-79
2023/08/09 14:18:49;;;;;;;3.40;3.03;;;24.20;91.20;;;;;;10472982;28;20226;-78
2023/08/09 14:23:51;;;;;;;3.70;2.30;;;24.20;91.10;;;;;;10500782;28;20407;-78
2023/08/09 14:28:53;;;;;;;2.30;2.13;;;24.30;90.50;;;;;;10458773;28;20275;-78
2023/08/09 14:33:57;;;;;;;3.00;2.20;;;24.20;90.40;;;;;;10514516;28;20228;-79
2023/08/09 14:38:59;;;;;;;3.97;2.50;;;24.10;90.80;;;;;;10506817;28;20518;-79
2023/08/09 14:44:01;;;;;;;2.73;2.00;;;24.00;90.60;;;;;;10501024;28;20217;-79
2023/08/09 14:49:05;;;;;;;3.80;2.87;;;23.90;90.70;;;;;;10491565;28;20282;-79
2023/08/09 14:54:07;;;;;;;2.90;2.60;;;23.90;91.20;;;;;;10488681;28;20222;-78
2023/08/09 14:59:10;;;;;;;3.40;2.37;;;23.90;91.50;;;;;;10458085;28;20197;-79
2023/08/09 15:04:18;;;;;;;2.30;2.20;;;23.90;91.50;;;;;;10500477;28;20649;-79
2023/08/09 15:09:21;;;;;;;2.83;2.23;;;23.90;91.20;;;;;;10472739;28;20227;-78
2023/08/09 15:14:23;;;;;;;3.40;3.10;;;23.90;91.60;;;;;;10506816;28;20284;-79
2023/08/09 15:19:27;;;;;;;3.93;3.00;;;23.90;91.10;;;;;;10508019;28;20204;-78
2023/08/09 15:24:30;;;;;;;3.23;2.93;;;23.80;90.80;;;;;;10527751;28;20601;-78
2023/08/09 15:29:33;;;;;;;3.40;3.10;;;23.70;91.20;;;;;;10494009;28;20236;-79
2023/08/09 15:34:37;;;;;;;7.13;5.17;;;23.60;91.40;;;;;;10471933;28;20228;-79
2023/08/09 15:39:39;;;;;;;4.13;3.50;;;23.60;90.90;;;;;;10490662;28;20292;-79
2023/08/09 15:44:41;;;;;;;2.27;2.17;;;23.50;91.20;;;;;;10504603;28;20280;-79
2023/08/09 15:49:44;;;;;;;2.47;2.33;;;23.50;91.10;;;;;;10495709;28;20247;-79
2023/08/09 15:54:47;;;;;;;2.53;2.20;;;23.50;91.90;;;;;;10471476;28;20281;-78
2023/08/09 15:59:49;;;;;;;3.07;2.63;;;23.40;91.20;;;;;;10473496;28;20225;-79
2023/08/09 16:04:53;;;;;;;2.40;2.30;;;23.40;90.50;;;;;;10466629;28;20684;-78
2023/08/09 16:09:55;;;;;;;2.70;2.50;;;23.30;90.70;;;;;;10482992;28;20229;-78
2023/08/09 16:14:57;;;;;;;2.20;2.00;;;23.30;91.40;;;;;;10506200;28;20270;-78
2023/08/09 16:20:01;;;;;;;2.23;2.13;;;23.30;90.80;;;;;;10530649;28;20239;-79
2023/08/09 16:25:04;;;;;;;2.50;2.27;;;23.40;89.40;;;;;;10509081;28;20222;-79
2023/08/09 16:30:09;;;;;;;2.20;2.10;;;23.30;90.60;;;;;;10494834;28;20252;-79
2023/08/09 16:35:13;;;;;;;2.13;2.03;;;23.30;90.80;;;;;;10479599;22;20223;-84
2023/08/09 16:40:16;;;;;;;3.53;2.87;;;23.20;90.20;;;;;;10400703;28;20202;-84
2023/08/09 16:45:19;;;;;;;2.90;2.53;;;23.20;91.20;;;;;;10390129;28;20238;-83
2023/08/09 16:50:23;;;;;;;2.50;2.30;;;23.20;91.10;;;;;;10394559;28;20790;-84
2023/08/09 16:55:25;;;;;;;2.57;2.47;;;23.20;91.00;;;;;;10394416;28;20239;-84
2023/08/09 17:00:28;;;;;;;3.00;2.80;;;23.20;90.80;;;;;;10414600;28;20202;-85
2023/08/09 17:05:31;;;;;;;2.93;2.20;;;23.20;90.40;;;;;;10409823;28;20227;-84
2023/08/09 17:10:34;;;;;;;2.10;2.00;;;23.10;90.90;;;;;;10404897;28;20224;-85
2023/08/09 17:15:37;;;;;;;3.50;3.20;;;23.10;90.20;;;;;;10422158;28;20242;-85
2023/08/09 17:20:40;;;;;;;3.40;3.20;;;23.10;91.80;;;;;;10410382;28;20582;-84
2023/08/09 17:25:42;;;;;;;2.47;2.37;;;23.00;92.40;;;;;;10406511;28;20281;-84
2023/08/09 17:30:46;;;;;;;3.30;2.90;;;22.90;91.80;;;;;;10400095;28;20226;-83
2023/08/09 17:35:49;;;;;;;3.00;2.40;;;22.80;91.10;;;;;;10429051;28;20226;-84
2023/08/09 17:40:51;;;;;;;2.83;2.63;;;22.80;91.10;;;;;;10424718;28;20260;-85
2023/08/09 17:45:53;;;;;;;2.80;2.53;;;22.70;91.90;;;;;;10418809;28;20214;-84
2023/08/09 17:50:57;;;;;;;3.00;2.80;;;22.60;92.30;;;;;;10391079;28;20234;-84
2023/08/09 17:55:59;;;;;;;4.13;2.87;;;22.60;92.90;;;;;;10395086;28;20688;-85
2023/08/09 18:01:02;;;;;;;3.10;2.90;;;22.50;94.00;;;;;;10413574;28;20203;-83
2023/08/09 18:06:05;;;;;;;2.37;2.23;;;22.40;94.30;;;;;;10412132;28;20233;-84
2023/08/09 18:11:08;;;;;;;2.37;2.17;;;22.20;95.00;;;;;;10395286;28;20277;-85
2023/08/09 18:16:10;;;;;;;4.67;3.10;;;22.10;95.90;;;;;;10406749;28;20235;-84
2023/08/09 18:21:13;;;;;;;2.67;2.47;;;22.00;96.60;;;;;;10389386;28;20214;-84
2023/08/09 18:26:15;;;;;;;2.90;2.80;;;21.90;96.90;;;;;;10418367;28;20305;-83
2023/08/09 18:31:19;;;;;;;3.13;3.03;;;21.80;97.10;;;;;;10394528;28;20227;-84
2023/08/09 18:36:22;;;;;;;3.10;2.90;;;21.70;97.40;;;;;;10401958;28;20233;-84
2023/08/09 18:41:24;;;;;;;3.67;3.47;;;21.60;97.60;;;;;;10399414;28;20691;-83
2023/08/09 18:46:26;;;;;;;3.43;3.17;;;21.60;97.90;;;;;;10420261;28;20222;-84
2023/08/09 18:51:30;;;;;;;7.37;3.70;;;21.50;98.10;;;;;;10396568;28;20258;-83
2023/08/09 18:56:32;;;;;;;6.00;4.77;;;21.50;98.20;;;;;;10401444;28;20239;-85
2023/08/09 19:01:34;;;;;;;4.83;4.43;;;21.50;98.20;;;;;;10416986;28;20198;-83
2023/08/09 19:06:38;;;;;;;8.13;7.47;;;21.40;99.10;;;;;;10422362;28;20278;-84
2023/08/09 19:11:41;;;;;;;10.20;9.67;;;21.20;99.90;;;;;;10394751;28;20594;-84
2023/08/09 19:16:43;;;;;;;10.87;10.00;;;20.80;99.90;;;;;;10400204;28;20215;-84
2023/08/09 19:21:47;;;;;;;11.90;11.20;;;20.40;99.90;;;;;;10387035;28;20293;-82
2023/08/09 19:26:49;;;;;;;12.40;11.70;;;20.10;99.90;;;;;;10400485;28;20219;-83
2023/08/09 19:31:51;;;;;;;13.40;12.60;;;19.90;99.90;;;;;;10406611;28;20226;-84
2023/08/09 19:36:55;;;;;;;14.43;13.63;;;19.80;99.90;;;;;;10396266;28;20234;-82
2023/08/09 19:41:57;;;;;;;13.07;12.37;;;19.60;99.90;;;;;;10405340;28;20225;-84
2023/08/09 19:47:01;;;;;;;14.30;13.60;;;19.50;99.90;;;;;;10407123;28;20693;-85
2023/08/09 19:52:05;;;;;;;13.80;13.00;;;19.40;99.90;;;;;;10409698;28;20231;-83
2023/08/09 19:57:07;;;;;;;14.37;13.43;;;19.30;99.90;;;;;;10432114;28;20214;-85
2023/08/09 20:02:10;;;;;;;13.07;12.17;;;19.20;99.90;;;;;;10419699;28;20211;-83
2023/08/09 20:07:14;;;;;;;13.30;12.60;;;19.20;99.90;;;;;;10428040;28;20442;-84
2023/08/09 20:12:16;;;;;;;14.03;13.23;;;19.10;99.90;;;;;;10444477;28;20266;-84
2023/08/09 20:17:19;;;;;;;12.63;11.83;;;19.10;99.90;;;;;;10430791;28;20246;-84
2023/08/09 20:22:23;;;;;;;14.30;13.50;;;19.10;99.90;;;;;;10413120;28;20234;-84
2023/08/09 20:27:25;;;;;;;13.13;12.33;;;19.10;99.90;;;;;;10413383;28;20258;-84
2023/08/09 20:32:27;;;;;;;13.30;12.43;;;19.10;99.90;;;;;;10390062;28;20207;-83
2023/08/09 20:37:31;;;;;;;11.07;10.37;;;19.00;99.90;;;;;;10413518;28;20238;-84
2023/08/09 20:42:33;;;;;;;12.77;11.97;;;19.00;99.90;;;;;;10446176;28;20189;-85
2023/08/09 20:47:35;;;;;;;11.03;10.40;;;19.00;99.90;;;;;;10437699;28;20236;-85
2023/08/09 20:52:38;;;;;;;11.30;10.70;;;18.90;99.90;;;;;;10406903;28;20203;-84
2023/08/09 20:57:40;;;;;;;10.70;10.03;;;19.00;99.90;;;;;;10393980;28;20249;-85
2023/08/09 21:02:43;;;;;;;11.50;9.20;;;18.90;99.90;;;;;;10406222;28;20242;-83
2023/08/09 21:07:47;;;;;;;9.60;9.00;;;18.90;99.90;;;;;;10417256;28;20219;-84
2023/08/09 21:12:49;;;;;;;8.80;8.00;;;18.90;99.90;;;;;;10405276;28;20207;-85
2023/08/09 21:17:51;;;;;;;10.00;9.30;;;18.90;99.90;;;;;;10401745;28;20241;-83
2023/08/09 21:22:54;;;;;;;8.30;7.70;;;18.80;99.90;;;;;;10428791;28;20489;-83
2023/08/09 21:27:56;;;;;;;8.03;7.57;;;18.80;99.90;;;;;;10414920;28;20227;-84
2023/08/09 21:32:58;;;;;;;7.63;7.13;;;18.80;99.90;;;;;;10384454;28;20571;-84
2023/08/09 21:38:02;;;;;;;7.30;6.90;;;18.70;99.90;;;;;;10403964;28;20693;-83
2023/08/09 21:43:04;;;;;;;7.90;7.40;;;18.70;99.90;;;;;;10411475;28;20238;-84
2023/08/09 21:48:06;;;;;;;8.00;7.40;;;18.70;99.90;;;;;;10398577;28;20222;-81
2023/08/09 21:53:10;;;;;;;6.60;6.30;;;18.70;99.90;;;;;;10431600;28;20206;-82
2023/08/09 21:58:12;;;;;;;7.57;7.17;;;18.60;99.90;;;;;;10426315;28;20219;-81
2023/08/09 22:03:15;;;;;;;5.87;5.57;;;18.60;99.90;;;;;;10402403;28;20210;-82
2023/08/09 22:08:18;;;;;;;6.33;5.93;;;18.70;99.90;;;;;;10426522;28;20265;-83
2023/08/09 22:13:20;;;;;;;6.57;5.97;;;18.70;99.90;;;;;;10396484;28;20211;-83
2023/08/09 22:18:22;;;;;;;7.13;5.90;;;18.70;99.90;;;;;;10393372;28;20207;-81
2023/08/09 22:23:26;;;;;;;6.23;5.93;;;18.70;99.90;;;;;;10414485;28;20207;-82
2023/08/09 22:28:28;;;;;;;6.00;5.70;;;18.70;99.90;;;;;;10401803;28;20940;-81
2023/08/09 22:33:30;;;;;;;6.17;5.77;;;18.60;99.90;;;;;;10407315;28;20207;-79
2023/08/09 22:38:33;;;;;;;6.40;5.90;;;18.70;99.90;;;;;;10425261;22;20277;-82
2023/08/09 22:43:35;;;;;;;6.50;6.10;;;18.60;99.90;;;;;;10412161;28;20206;-82
2023/08/09 22:48:37;;;;;;;6.00;5.70;;;18.60;99.90;;;;;;10380793;28;20222;-82
2023/08/09 22:53:41;;;;;;;6.23;5.83;;;18.60;99.90;;;;;;10412344;28;20275;-82
2023/08/09 22:58:43;;;;;;;5.80;5.50;;;18.60;99.90;;;;;;10378542;28;20214;-81
2023/08/09 23:03:45;;;;;;;6.00;5.70;;;18.60;99.90;;;;;;10379873;28;20206;-82
2023/08/09 23:08:48;;;;;;;5.93;5.63;;;18.50;99.90;;;;;;10410567;28;20222;-82
2023/08/09 23:13:50;;;;;;;6.13;5.73;;;18.50;99.90;;;;;;10427285;28;20226;-81
2023/08/09 23:18:53;;;;;;;4.90;4.70;;;18.50;99.90;;;;;;10406846;28;20211;-82
2023/08/09 23:23:56;;;;;;;5.70;5.40;;;18.40;99.90;;;;;;10408109;28;20729;-81
2023/08/09 23:28:58;;;;;;;4.83;4.63;;;18.40;99.90;;;;;;10379130;28;20601;-82
2023/08/09 23:34:02;;;;;;;4.90;4.60;;;18.30;99.90;;;;;;10380985;28;20202;-81
2023/08/09 23:39:07;;;;;;;5.10;4.80;;;18.30;99.90;;;;;;10387480;28;20249;-82
2023/08/09 23:44:09;;;;;;;4.23;4.03;;;18.30;99.90;;;;;;10412865;28;20257;-82
2023/08/09 23:49:11;;;;;;;3.80;3.60;;;18.30;99.90;;;;;;10408400;28;20249;-82
2023/08/09 23:54:14;;;;;;;3.80;3.60;;;18.20;99.90;;;;;;10413044;28;20206;-81
2023/08/09 23:59:17;;;;;;;5.20;4.90;;;18.10;99.90;;;;;;10428577;28;20221;-81
